createdAt,value
2023-01-19T00:01:03.186Z,97.3
2023-01-19T00:21:03.338Z,97.3
2023-01-19T00:41:02.992Z,97.3
2023-01-19T01:01:03.946Z,97.6
2023-01-19T01:21:03.486Z,97.7
2023-01-19T02:01:03.421Z,97.3
2023-01-19T02:21:03.934Z,97.3
2023-01-19T02:41:03.904Z,97.3
2023-01-19T03:01:05.166Z,97.1
2023-01-19T03:21:03.972Z,96.6
2023-01-19T03:41:03.833Z,96.7
2023-01-19T04:01:04.270Z,97.2
2023-01-19T04:21:04.099Z,97.5
2023-01-19T04:41:04.250Z,97.5
2023-01-19T05:01:04.340Z,97.4
2023-01-19T05:21:04.363Z,97.1
2023-01-19T05:41:04.579Z,96.8
2023-01-19T06:01:04.237Z,96.5
2023-01-19T06:21:04.439Z,96.3
2023-01-19T06:41:04.776Z,96.1
2023-01-19T07:01:04.756Z,96
2023-01-19T07:21:04.673Z,96
2023-01-19T07:41:04.853Z,96.3
2023-01-19T08:01:04.872Z,96
2023-01-19T08:21:04.922Z,95.7
2023-01-19T08:41:04.643Z,95.8
2023-01-19T09:01:04.902Z,95.2
2023-01-19T09:21:05.157Z,95.1
2023-01-19T09:41:05.285Z,94.9
2023-01-19T10:01:05.387Z,94.1
2023-01-19T10:21:05.627Z,93.8
2023-01-19T10:41:05.287Z,93.6
2023-01-19T11:01:05.626Z,93.1
2023-01-19T11:21:05.146Z,92.7
2023-01-19T11:41:05.197Z,92.4
2023-01-19T12:01:05.582Z,92.6
2023-01-19T12:21:05.693Z,92.6
2023-01-19T12:41:05.625Z,92.3
2023-01-19T13:01:05.619Z,92.1
2023-01-19T13:21:05.740Z,92.3
2023-01-19T13:41:05.697Z,91.5
2023-01-19T14:01:05.781Z,91.4
2023-01-19T14:21:05.818Z,91.9
2023-01-19T14:41:05.749Z,92.3
2023-01-19T15:01:06.076Z,92.4
2023-01-19T15:21:05.810Z,92.9
2023-01-19T15:41:05.805Z,94.2
2023-01-19T16:01:06.002Z,95
2023-01-19T16:21:05.995Z,95.3
2023-01-19T16:41:05.977Z,95.5
2023-01-19T17:01:06.258Z,95.8
2023-01-19T17:21:06.042Z,96.1
2023-01-19T17:41:06.125Z,96.6
2023-01-19T18:01:06.238Z,96.8
2023-01-19T18:21:06.494Z,96.8
2023-01-19T18:41:06.526Z,96.7
2023-01-19T19:01:06.359Z,96.7
2023-01-19T19:21:06.826Z,96.6
2023-01-19T19:41:06.534Z,96.6
2023-01-19T20:01:06.631Z,96.7
2023-01-19T20:21:06.582Z,96.8
2023-01-19T20:41:14.289Z,96.9
2023-01-19T21:01:06.822Z,96.8
2023-01-19T21:21:10.635Z,96.8
2023-01-19T21:41:06.689Z,97
2023-01-19T22:01:07.007Z,97
2023-01-19T22:21:06.935Z,96.9
2023-01-19T22:41:07.111Z,96.9
2023-01-19T23:01:07.129Z,96.8
2023-01-19T23:21:07.006Z,96.9
2023-01-19T23:41:07.190Z,97
